createdAt,value
2018-05-27T00:00:37.512Z,6.90
2018-05-27T00:03:05.064Z,4.83
2018-05-27T00:05:32.663Z,6.37
2018-05-27T00:08:00.296Z,4.67
2018-05-27T00:10:27.884Z,5.57
2018-05-27T00:12:55.428Z,5.80
2018-05-27T00:15:23.811Z,7.10
2018-05-27T00:17:51.438Z,6.27
2018-05-27T00:20:19.008Z,4.90
2018-05-27T00:22:46.633Z,4.83
2018-05-27T00:25:14.183Z,5.10
2018-05-27T00:27:41.797Z,8.80
2018-05-27T00:30:09.375Z,10.60
2018-05-27T00:32:37.709Z,4.10
2018-05-27T00:35:05.288Z,5.97
2018-05-27T00:37:32.866Z,4.77
2018-05-27T00:40:00.476Z,4.97
2018-05-27T00:42:28.070Z,9.00
2018-05-27T00:44:55.647Z,4.87
2018-05-27T00:47:24.032Z,9.20
2018-05-27T00:49:52.467Z,5.03
2018-05-27T00:52:20.305Z,4.83
2018-05-27T00:54:47.959Z,4.70
2018-05-27T00:57:15.545Z,5.20
2018-05-27T00:59:43.129Z,3.60
2018-05-27T01:02:10.704Z,4.60
2018-05-27T01:04:38.284Z,4.80
2018-05-27T01:07:06.671Z,4.70
2018-05-27T01:09:35.047Z,4.40
2018-05-27T01:12:02.665Z,4.93
2018-05-27T01:14:30.241Z,7.10
2018-05-27T01:16:57.783Z,7.37
2018-05-27T01:19:25.380Z,4.87
2018-05-27T01:21:53.717Z,5.37
2018-05-27T01:24:21.290Z,9.07
2018-05-27T01:26:48.930Z,5.33
2018-05-27T01:29:16.511Z,6.47
2018-05-27T01:31:44.129Z,5.77
2018-05-27T01:34:11.716Z,8.10
2018-05-27T01:36:39.312Z,6.57
2018-05-27T01:39:06.962Z,7.00
2018-05-27T01:41:34.593Z,7.13
2018-05-27T01:44:02.238Z,4.87
2018-05-27T01:46:29.825Z,4.93
2018-05-27T01:48:57.404Z,5.93
2018-05-27T01:51:24.962Z,5.77
2018-05-27T01:53:52.567Z,6.13
2018-05-27T01:56:20.914Z,5.37
2018-05-27T01:58:49.314Z,4.53
2018-05-27T02:01:17.637Z,10.00
2018-05-27T02:03:45.796Z,5.97
2018-05-27T02:06:13.398Z,4.70
2018-05-27T02:08:41.034Z,4.17
2018-05-27T02:11:08.631Z,4.50
2018-05-27T02:13:36.246Z,4.67
2018-05-27T02:16:03.815Z,6.87
2018-05-27T02:18:31.432Z,8.80
2018-05-27T02:20:59.779Z,4.87
2018-05-27T02:23:27.380Z,4.30
2018-05-27T02:25:55.836Z,5.27
2018-05-27T02:28:24.232Z,4.23
2018-05-27T02:30:52.688Z,5.93
2018-05-27T02:33:20.263Z,4.07
2018-05-27T02:35:47.840Z,7.13
2018-05-27T02:38:15.424Z,4.70
2018-05-27T02:40:43.065Z,8.47
2018-05-27T02:43:10.631Z,7.43
2018-05-27T02:45:38.268Z,4.43
2018-05-27T02:48:06.635Z,4.77
2018-05-27T02:50:34.201Z,5.00
2018-05-27T02:53:02.608Z,4.87
2018-05-27T02:55:30.224Z,5.13
2018-05-27T02:57:57.856Z,5.90
2018-05-27T03:00:25.465Z,4.70
2018-05-27T03:02:53.047Z,4.80
2018-05-27T03:05:20.647Z,5.83
2018-05-27T03:07:48.306Z,4.53
2018-05-27T03:10:15.916Z,5.43
2018-05-27T03:12:44.308Z,5.23
2018-05-27T03:15:11.903Z,4.87
2018-05-27T03:17:39.499Z,4.63
2018-05-27T03:20:07.104Z,7.90
2018-05-27T03:22:34.840Z,7.43
2018-05-27T03:25:02.459Z,4.73
2018-05-27T03:27:30.066Z,4.93
2018-05-27T03:29:58.447Z,5.47
2018-05-27T03:32:26.040Z,7.07
2018-05-27T03:34:53.644Z,6.47
2018-05-27T03:37:21.205Z,4.53
2018-05-27T03:39:48.784Z,6.00
2018-05-27T03:42:18.217Z,6.83
2018-05-27T03:44:45.866Z,5.00
2018-05-27T03:47:13.455Z,6.67
2018-05-27T03:49:41.074Z,5.70
2018-05-27T03:52:08.674Z,4.60
2018-05-27T03:54:36.250Z,7.43
2018-05-27T03:57:03.853Z,5.67
2018-05-27T03:59:31.422Z,8.17
2018-05-27T04:01:59.035Z,5.40
2018-05-27T04:04:51.305Z,6.43
2018-05-27T04:07:30.698Z,4.87
2018-05-27T04:09:58.280Z,8.10
2018-05-27T04:12:25.854Z,6.20
2018-05-27T04:14:54.328Z,5.87
2018-05-27T04:17:21.867Z,6.23
2018-05-27T04:19:49.448Z,5.83
2018-05-27T04:22:17.071Z,5.83
2018-05-27T04:24:44.674Z,11.93
2018-05-27T04:27:12.245Z,5.30
2018-05-27T04:29:39.848Z,6.90
2018-05-27T04:32:07.466Z,6.03
2018-05-27T04:34:35.851Z,6.90
2018-05-27T04:37:04.200Z,5.10
2018-05-27T04:39:31.841Z,5.10
2018-05-27T04:41:59.412Z,5.47
2018-05-27T04:44:26.975Z,6.07
2018-05-27T04:46:54.535Z,7.30
2018-05-27T04:49:22.130Z,5.33
2018-05-27T04:51:50.468Z,4.70
2018-05-27T04:54:18.054Z,5.20
2018-05-27T04:56:45.663Z,6.30
2018-05-27T04:59:13.359Z,6.57
2018-05-27T05:01:40.954Z,5.17
2018-05-27T05:04:09.361Z,4.33
2018-05-27T05:06:36.928Z,5.23
2018-05-27T05:09:05.313Z,5.13
2018-05-27T05:11:32.924Z,7.23
2018-05-27T05:14:00.558Z,6.80
2018-05-27T05:16:28.193Z,8.80
2018-05-27T05:18:55.788Z,5.60
2018-05-27T05:21:23.360Z,5.37
2018-05-27T05:23:50.950Z,4.47
2018-05-27T05:26:18.496Z,7.80
2018-05-27T05:28:46.850Z,5.17
2018-05-27T05:31:14.467Z,4.97
2018-05-27T05:33:42.138Z,7.60
2018-05-27T05:36:09.781Z,5.53
2018-05-27T05:38:37.394Z,6.43
2018-05-27T05:41:05.103Z,4.43
2018-05-27T05:43:32.771Z,5.30
2018-05-27T05:46:00.378Z,4.67
2018-05-27T05:48:28.002Z,5.23
2018-05-27T05:50:57.392Z,5.37
2018-05-27T05:53:25.075Z,4.50
2018-05-27T05:55:52.669Z,4.77
2018-05-27T05:58:20.376Z,6.90
2018-05-27T06:00:47.989Z,4.73
2018-05-27T06:03:15.607Z,5.20
2018-05-27T06:05:43.197Z,4.17
2018-05-27T06:08:10.814Z,4.87
2018-05-27T06:10:39.180Z,4.90
2018-05-27T06:13:06.869Z,5.23
2018-05-27T06:15:34.529Z,6.77
2018-05-27T06:18:02.159Z,4.77
2018-05-27T06:20:29.748Z,4.33
2018-05-27T06:22:57.374Z,7.47
2018-05-27T06:25:24.963Z,5.23
2018-05-27T06:27:53.335Z,6.03
2018-05-27T06:30:21.710Z,6.43
2018-05-27T06:32:50.972Z,4.80
2018-05-27T06:35:18.539Z,5.27
2018-05-27T06:37:46.097Z,5.50
2018-05-27T06:40:13.700Z,10.07
2018-05-27T06:42:42.220Z,6.23
2018-05-27T06:45:10.406Z,5.53
2018-05-27T06:47:38.004Z,8.87
2018-05-27T06:50:06.414Z,5.53
2018-05-27T06:52:34.018Z,5.37
2018-05-27T06:55:01.609Z,6.07
2018-05-27T06:57:29.967Z,10.40
2018-05-27T06:59:57.555Z,7.60
2018-05-27T07:02:25.895Z,5.93
2018-05-27T07:04:53.499Z,5.83
2018-05-27T07:07:21.090Z,5.57
2018-05-27T07:09:48.672Z,5.30
2018-05-27T07:12:16.244Z,7.00
2018-05-27T07:14:43.827Z,7.10
2018-05-27T07:17:12.172Z,7.17
2018-05-27T07:19:39.767Z,8.23
2018-05-27T07:22:08.185Z,8.00
2018-05-27T07:24:35.804Z,6.33
2018-05-27T07:27:03.390Z,9.43
2018-05-27T07:29:30.960Z,8.20
2018-05-27T07:31:58.537Z,6.53
2018-05-27T07:34:26.138Z,10.70
2018-05-27T07:36:53.728Z,11.50
2018-05-27T07:39:21.305Z,6.10
2018-05-27T07:41:48.961Z,7.33
2018-05-27T07:44:16.582Z,7.87
2018-05-27T07:46:44.161Z,6.20
2018-05-27T07:49:12.311Z,6.23
2018-05-27T07:51:40.012Z,6.20
2018-05-27T07:54:07.786Z,6.47
2018-05-27T07:56:35.432Z,7.20
2018-05-27T07:59:03.019Z,5.80
2018-05-27T08:01:31.387Z,8.93
2018-05-27T08:03:59.014Z,6.37
2018-05-27T08:06:26.588Z,6.30
2018-05-27T08:08:54.142Z,7.93
2018-05-27T08:11:21.830Z,7.60
2018-05-27T08:13:50.416Z,5.97
2018-05-27T08:16:18.044Z,7.80
2018-05-27T08:18:46.401Z,6.43
2018-05-27T08:21:14.018Z,6.20
2018-05-27T08:23:41.655Z,5.90
2018-05-27T08:26:10.043Z,5.77
2018-05-27T08:28:37.664Z,9.57
2018-05-27T08:31:05.424Z,6.93
2018-05-27T08:33:33.046Z,5.27
2018-05-27T08:36:00.661Z,6.57
2018-05-27T08:38:28.262Z,7.10
2018-05-27T08:40:55.880Z,5.53
2018-05-27T08:43:23.526Z,8.00
2018-05-27T08:45:51.131Z,6.00
2018-05-27T08:48:19.473Z,6.70
2018-05-27T08:50:47.155Z,8.83
2018-05-27T08:53:14.770Z,5.57
2018-05-27T08:55:43.363Z,6.80
2018-05-27T08:58:10.957Z,7.10
2018-05-27T09:00:38.602Z,11.93
2018-05-27T09:03:06.255Z,6.97
2018-05-27T09:05:33.835Z,6.10
2018-05-27T09:08:01.426Z,6.67
2018-05-27T09:10:30.100Z,5.43
2018-05-27T09:12:58.616Z,6.17
2018-05-27T09:15:26.259Z,6.13
2018-05-27T09:17:53.906Z,5.73
2018-05-27T09:20:22.234Z,5.83
2018-05-27T09:22:49.862Z,7.63
2018-05-27T09:25:17.513Z,6.40
2018-05-27T09:27:45.858Z,10.10
2018-05-27T09:30:13.446Z,7.07
2018-05-27T09:32:41.847Z,7.27
2018-05-27T09:35:09.433Z,5.20
2018-05-27T09:37:37.082Z,8.70
2018-05-27T09:40:04.630Z,5.10
2018-05-27T09:42:32.281Z,7.93
2018-05-27T09:44:59.878Z,6.80
2018-05-27T09:47:27.662Z,6.43
2018-05-27T09:49:55.419Z,4.40
2018-05-27T09:52:23.244Z,5.70
2018-05-27T09:54:50.821Z,6.27
2018-05-27T09:57:18.729Z,10.00
2018-05-27T09:59:46.329Z,8.20
2018-05-27T10:02:13.966Z,5.83
2018-05-27T10:04:41.575Z,6.83
2018-05-27T10:07:09.162Z,5.83
2018-05-27T10:09:36.775Z,7.50
2018-05-27T10:12:05.769Z,6.90
2018-05-27T10:14:33.444Z,6.10
2018-05-27T10:17:01.032Z,5.30
2018-05-27T10:19:28.699Z,6.00
2018-05-27T10:21:56.305Z,5.77
2018-05-27T10:24:24.711Z,6.57
2018-05-27T10:26:52.345Z,7.53
2018-05-27T10:29:19.970Z,7.87
2018-05-27T10:31:47.551Z,5.57
2018-05-27T10:34:15.156Z,5.30
2018-05-27T10:36:42.758Z,4.90
2018-05-27T10:39:10.374Z,6.03
2018-05-27T10:41:38.711Z,5.70
2018-05-27T10:44:06.305Z,5.83
2018-05-27T10:46:33.874Z,7.03
2018-05-27T10:49:01.473Z,7.40
2018-05-27T10:51:29.085Z,9.17
2018-05-27T10:53:56.675Z,7.03
2018-05-27T10:56:24.401Z,12.63
2018-05-27T10:58:52.054Z,6.10
2018-05-27T11:01:20.432Z,7.20
2018-05-27T11:03:48.012Z,5.50
2018-05-27T11:06:15.705Z,5.93
2018-05-27T11:08:43.368Z,5.37
2018-05-27T11:11:10.971Z,6.70
2018-05-27T11:13:39.333Z,6.60
2018-05-27T11:16:06.958Z,6.53
2018-05-27T11:18:34.680Z,10.97
2018-05-27T11:21:03.055Z,7.10
2018-05-27T11:23:31.381Z,6.53
2018-05-27T11:25:58.976Z,6.37
2018-05-27T11:28:26.549Z,9.67
2018-05-27T11:30:54.130Z,6.57
2018-05-27T11:33:22.472Z,8.37
2018-05-27T11:35:50.127Z,6.73
2018-05-27T11:38:17.708Z,5.93
2018-05-27T11:40:45.373Z,8.83
2018-05-27T11:43:13.038Z,5.80
2018-05-27T11:45:40.610Z,5.70
2018-05-27T11:48:08.988Z,10.60
2018-05-27T11:53:11.332Z,6.00
2018-05-27T11:55:39.843Z,5.93
2018-05-27T11:58:07.423Z,7.03
2018-05-27T12:00:35.786Z,6.50
2018-05-27T12:03:03.387Z,5.13
2018-05-27T12:05:31.762Z,6.37
2018-05-27T12:07:59.397Z,9.13
2018-05-27T12:10:27.725Z,6.73
2018-05-27T12:12:55.279Z,7.50
2018-05-27T12:15:22.858Z,6.17
2018-05-27T12:17:50.443Z,8.17
2018-05-27T12:20:18.012Z,5.70
2018-05-27T12:22:46.386Z,6.80
2018-05-27T12:25:14.022Z,8.03
2018-05-27T12:27:41.639Z,7.90
2018-05-27T12:30:09.296Z,5.73
2018-05-27T12:32:37.644Z,6.57
2018-05-27T12:35:05.237Z,6.30
2018-05-27T12:37:32.874Z,6.03
2018-05-27T12:40:01.265Z,4.93
2018-05-27T12:42:29.709Z,7.53
2018-05-27T12:44:57.310Z,12.23
2018-05-27T12:47:24.896Z,7.30
2018-05-27T12:49:52.584Z,7.50
2018-05-27T12:52:20.201Z,8.23
2018-05-27T12:54:47.802Z,6.63
2018-05-27T12:57:15.381Z,6.27
2018-05-27T12:59:43.039Z,7.13
2018-05-27T13:02:10.641Z,6.33
2018-05-27T13:04:39.000Z,9.93
2018-05-27T13:07:06.623Z,5.03
2018-05-27T13:09:34.219Z,7.60
2018-05-27T13:12:01.794Z,7.90
2018-05-27T13:14:30.155Z,8.00
2018-05-27T13:16:57.819Z,7.80
2018-05-27T13:19:25.404Z,6.50
2018-05-27T13:21:52.944Z,5.33
2018-05-27T13:24:21.354Z,6.10
2018-05-27T13:26:49.044Z,7.73
2018-05-27T13:29:16.637Z,8.33
2018-05-27T13:31:44.264Z,5.33
2018-05-27T13:34:11.828Z,5.23
2018-05-27T13:36:40.166Z,5.33
2018-05-27T13:39:07.755Z,5.10
2018-05-27T13:41:36.228Z,6.83
2018-05-27T13:44:03.854Z,5.50
2018-05-27T13:46:32.264Z,8.27
2018-05-27T13:48:59.836Z,7.23
2018-05-27T13:51:27.447Z,8.00
2018-05-27T13:53:55.028Z,6.07
2018-05-27T13:56:23.378Z,6.10
2018-05-27T13:58:51.000Z,5.40
2018-05-27T14:01:18.591Z,5.00
2018-05-27T14:03:46.707Z,7.43
2018-05-27T14:06:14.365Z,6.67
2018-05-27T14:08:41.984Z,5.43
2018-05-27T14:11:09.580Z,5.20
2018-05-27T14:13:37.166Z,9.17
2018-05-27T14:16:05.447Z,6.17
2018-05-27T14:18:33.117Z,5.83
2018-05-27T14:21:00.718Z,6.77
2018-05-27T14:23:28.309Z,5.57
2018-05-27T14:25:55.921Z,5.37
2018-05-27T14:28:23.541Z,5.33
2018-05-27T14:30:51.103Z,6.80
2018-05-27T14:33:18.883Z,5.33
2018-05-27T14:35:46.445Z,6.13
2018-05-27T14:38:14.047Z,5.43
2018-05-27T14:40:41.647Z,8.50
2018-05-27T14:43:09.320Z,7.73
2018-05-27T14:45:36.894Z,5.83
2018-05-27T14:48:04.530Z,9.57
2018-05-27T14:50:32.139Z,6.60
2018-05-27T14:52:59.703Z,9.50
2018-05-27T14:55:27.339Z,5.63
2018-05-27T14:57:54.930Z,5.60
2018-05-27T15:00:22.525Z,7.13
2018-05-27T15:02:50.147Z,9.00
2018-05-27T15:05:17.724Z,8.93
2018-05-27T15:07:45.316Z,8.03
2018-05-27T15:10:12.945Z,17.47
2018-05-27T15:12:40.519Z,6.67
2018-05-27T15:15:08.874Z,15.83
2018-05-27T15:17:36.450Z,7.23
2018-05-27T15:20:04.051Z,15.17
2018-05-27T15:22:31.647Z,8.60
2018-05-27T15:24:59.223Z,6.13
2018-05-27T15:27:26.847Z,6.53
2018-05-27T15:29:54.481Z,7.87
2018-05-27T15:32:22.072Z,14.83
2018-05-27T15:34:49.680Z,25.00
2018-05-27T15:37:17.731Z,15.10
2018-05-27T15:39:45.293Z,7.93
2018-05-27T15:42:12.892Z,7.97
2018-05-27T15:44:40.536Z,9.73
2018-05-27T15:47:08.127Z,9.60
2018-05-27T15:49:35.712Z,11.57
2018-05-27T15:52:03.282Z,7.90
2018-05-27T15:54:31.700Z,8.40
2018-05-27T15:57:00.179Z,8.90
2018-05-27T15:59:28.540Z,10.33
2018-05-27T16:01:56.446Z,8.47
2018-05-27T16:04:24.052Z,9.80
2018-05-27T16:06:51.672Z,10.90
2018-05-27T16:09:19.287Z,9.50
2018-05-27T16:11:46.926Z,10.37
2018-05-27T16:14:14.626Z,11.07
2018-05-27T16:16:42.972Z,8.17
2018-05-27T16:19:10.532Z,8.27
2018-05-27T16:21:38.174Z,8.00
2018-05-27T16:24:05.867Z,20.43
2018-05-27T16:26:33.530Z,10.50
2018-05-27T16:29:01.168Z,8.00
2018-05-27T16:31:28.763Z,7.37
2018-05-27T16:33:56.313Z,9.73
2018-05-27T16:36:23.901Z,12.80
2018-05-27T16:38:52.259Z,10.70
2018-05-27T16:41:19.868Z,7.50
2018-05-27T16:43:47.471Z,7.90
2018-05-27T16:46:15.098Z,7.10
2018-05-27T16:48:42.697Z,12.20
2018-05-27T16:51:10.376Z,7.67
2018-05-27T16:53:37.991Z,7.80
2018-05-27T16:56:05.551Z,9.87
2018-05-27T16:58:33.211Z,17.40
2018-05-27T17:01:00.789Z,9.77
2018-05-27T17:03:28.373Z,7.03
2018-05-27T17:05:56.031Z,6.90
2018-05-27T17:08:23.952Z,8.70
2018-05-27T17:10:51.546Z,8.63
2018-05-27T17:13:19.156Z,8.93
2018-05-27T17:15:46.752Z,11.27
2018-05-27T17:18:14.369Z,7.57
2018-05-27T17:20:42.790Z,7.47
2018-05-27T17:23:10.566Z,6.50
2018-05-27T17:25:38.200Z,6.57
2018-05-27T17:28:06.039Z,7.87
2018-05-27T17:30:34.385Z,6.43
2018-05-27T17:33:02.000Z,6.17
2018-05-27T17:35:30.387Z,8.40
2018-05-27T17:37:58.023Z,6.90
2018-05-27T17:40:26.405Z,6.50
2018-05-27T17:42:54.761Z,5.70
2018-05-27T17:45:22.329Z,6.10
2018-05-27T17:47:49.900Z,6.37
2018-05-27T17:50:19.082Z,6.50
2018-05-27T17:52:46.682Z,7.37
2018-05-27T17:55:14.290Z,10.73
2018-05-27T17:57:41.961Z,15.60
2018-05-27T18:00:09.902Z,6.40
2018-05-27T18:02:37.536Z,7.70
2018-05-27T18:05:05.140Z,6.77
2018-05-27T18:07:32.771Z,8.37
2018-05-27T18:10:00.371Z,7.80
2018-05-27T18:12:27.979Z,7.27
2018-05-27T18:14:55.614Z,8.53
2018-05-27T18:17:24.056Z,13.83
2018-05-27T18:19:51.657Z,7.57
2018-05-27T18:22:19.271Z,9.67
2018-05-27T18:24:46.931Z,9.73
2018-05-27T18:27:14.544Z,7.17
2018-05-27T18:29:43.820Z,8.30
2018-05-27T18:32:11.432Z,8.53
2018-05-27T18:34:39.023Z,10.63
2018-05-27T18:37:06.693Z,8.77
2018-05-27T18:39:34.319Z,8.50
2018-05-27T18:42:01.954Z,10.00
2018-05-27T18:44:29.615Z,10.77
2018-05-27T18:46:59.001Z,12.47
2018-05-27T18:49:27.359Z,9.70
2018-05-27T18:51:55.043Z,11.80
2018-05-27T18:54:23.390Z,12.93
2018-05-27T18:56:51.039Z,10.57
2018-05-27T18:59:18.910Z,14.00
2018-05-27T19:01:46.496Z,10.90
2018-05-27T19:04:14.975Z,12.83
2018-05-27T19:06:42.596Z,11.17
2018-05-27T19:09:10.163Z,11.37
2018-05-27T19:11:37.798Z,13.37
2018-05-27T19:14:05.407Z,14.20
2018-05-27T19:16:33.023Z,12.87
2018-05-27T19:19:00.649Z,10.53
2018-05-27T19:21:29.022Z,15.43
2018-05-27T19:23:56.646Z,15.90
2018-05-27T19:26:24.719Z,11.30
2018-05-27T19:28:52.315Z,11.90
2018-05-27T19:31:20.721Z,12.93
2018-05-27T19:33:48.364Z,13.07
2018-05-27T19:36:15.957Z,12.30
2018-05-27T19:38:43.571Z,17.97
2018-05-27T19:41:11.179Z,14.47
2018-05-27T19:43:38.823Z,12.83
2018-05-27T19:46:07.207Z,12.73
2018-05-27T19:48:35.671Z,13.10
2018-05-27T19:51:03.259Z,11.17
2018-05-27T19:53:30.872Z,12.87
2018-05-27T19:55:58.511Z,13.37
2018-05-27T19:58:26.459Z,11.87
2018-05-27T20:00:54.126Z,11.90
2018-05-27T20:03:21.701Z,11.50
2018-05-27T20:05:49.365Z,12.03
2018-05-27T20:08:16.993Z,14.53
2018-05-27T20:10:44.569Z,11.80
2018-05-27T20:13:12.172Z,13.40
2018-05-27T20:15:41.432Z,12.57
2018-05-27T20:18:09.784Z,11.80
2018-05-27T20:20:39.105Z,11.73
2018-05-27T20:23:06.747Z,11.07
2018-05-27T20:25:34.331Z,11.17
2018-05-27T20:28:01.967Z,11.47
2018-05-27T20:30:29.640Z,10.37
2018-05-27T20:32:57.216Z,11.43
2018-05-27T20:35:24.849Z,13.40
2018-05-27T20:37:53.310Z,12.00
2018-05-27T20:40:20.988Z,11.33
2018-05-27T20:42:49.327Z,12.60
2018-05-27T20:45:16.901Z,10.23
2018-05-27T20:47:44.500Z,11.00
2018-05-27T20:50:12.095Z,13.93
2018-05-27T20:52:39.761Z,10.77
2018-05-27T20:55:07.383Z,10.50
2018-05-27T20:57:34.964Z,11.23
2018-05-27T21:00:03.577Z,11.73
2018-05-27T21:02:31.156Z,11.70
2018-05-27T21:04:58.776Z,11.40
2018-05-27T21:07:26.367Z,11.70
2018-05-27T21:09:54.017Z,11.63
2018-05-27T21:12:21.599Z,13.10
2018-05-27T21:14:49.255Z,12.07
2018-05-27T21:17:16.875Z,9.57
2018-05-27T21:19:44.507Z,11.47
2018-05-27T21:22:12.140Z,9.97
2018-05-27T21:24:39.758Z,10.53
2018-05-27T21:27:07.406Z,9.03
2018-05-27T21:29:34.969Z,12.07
2018-05-27T21:32:02.588Z,15.00
2018-05-27T21:34:30.233Z,10.83
2018-05-27T21:36:57.832Z,10.17
2018-05-27T21:39:26.220Z,11.37
2018-05-27T21:41:53.847Z,11.80
2018-05-27T21:44:21.449Z,12.37
2018-05-27T21:46:49.133Z,10.17
2018-05-27T21:49:16.716Z,10.07
2018-05-27T21:51:44.300Z,12.10
2018-05-27T21:54:11.910Z,10.77
2018-05-27T21:56:39.516Z,11.00
2018-05-27T21:59:07.129Z,12.10
2018-05-27T22:01:34.694Z,11.93
2018-05-27T22:04:06.887Z,10.20
2018-05-27T22:06:34.526Z,10.97
2018-05-27T22:09:02.104Z,12.20
2018-05-27T22:11:29.763Z,10.07
2018-05-27T22:13:57.358Z,10.63
2018-05-27T22:16:25.022Z,14.03
2018-05-27T22:18:52.630Z,11.90
2018-05-27T22:21:20.257Z,12.23
2018-05-27T22:23:47.949Z,13.63
2018-05-27T22:26:15.518Z,15.43
2018-05-27T22:28:43.094Z,12.33
2018-05-27T22:31:11.477Z,10.73
2018-05-27T22:33:39.128Z,12.17
2018-05-27T22:36:06.726Z,12.80
2018-05-27T22:38:34.335Z,11.10
2018-05-27T22:41:01.974Z,12.57
2018-05-27T22:43:30.311Z,10.60
2018-05-27T22:45:57.899Z,16.83
2018-05-27T22:48:26.380Z,13.27
2018-05-27T22:50:54.761Z,13.03
2018-05-27T22:53:23.125Z,14.73
2018-05-27T22:55:50.743Z,14.63
2018-05-27T22:58:18.387Z,19.63
2018-05-27T23:00:45.998Z,12.93
2018-05-27T23:03:13.931Z,13.07
2018-05-27T23:05:41.651Z,15.50
2018-05-27T23:08:09.259Z,14.00
2018-05-27T23:10:36.876Z,15.10
2018-05-27T23:13:04.488Z,14.43
2018-05-27T23:15:32.097Z,14.30
2018-05-27T23:18:00.502Z,14.10
2018-05-27T23:20:28.133Z,13.67
2018-05-27T23:22:56.503Z,12.73
2018-05-27T23:25:24.144Z,18.00
2018-05-27T23:27:51.770Z,19.23
2018-05-27T23:30:19.368Z,18.70
2018-05-27T23:32:47.005Z,14.10
2018-05-27T23:35:14.644Z,14.80
2018-05-27T23:37:42.222Z,16.03
2018-05-27T23:40:09.866Z,16.60
2018-05-27T23:42:37.450Z,16.10
2018-05-27T23:45:05.120Z,14.50
2018-05-27T23:47:32.775Z,14.83
2018-05-27T23:50:00.397Z,15.93
2018-05-27T23:52:28.809Z,15.53
2018-05-27T23:54:56.450Z,15.07
2018-05-27T23:57:24.038Z,13.57
2018-05-27T23:59:51.696Z,15.67
